createdAt,value
2023-02-19T00:01:52.270Z,36.64
2023-02-19T00:04:58.244Z,37.70
2023-02-19T00:08:04.762Z,39.33
2023-02-19T00:11:19.202Z,39.08
2023-02-19T00:14:25.869Z,39.32
2023-02-19T00:17:31.628Z,40.27
2023-02-19T00:20:38.240Z,36.16
2023-02-19T00:23:44.402Z,33.90
2023-02-19T00:26:53.731Z,30.07
2023-02-19T00:29:59.494Z,28.90
2023-02-19T00:33:06.276Z,29.28
2023-02-19T00:36:12.504Z,28.22
2023-02-19T00:39:21.573Z,28.66
2023-02-19T00:42:30.050Z,27.67
2023-02-19T00:45:37.063Z,27.84
2023-02-19T00:48:42.861Z,32.70
2023-02-19T00:51:50.489Z,35.09
2023-02-19T00:54:56.834Z,39.34
2023-02-19T00:58:06.036Z,39.29
2023-02-19T01:01:13.864Z,41.65
2023-02-19T01:04:20.553Z,48.20
2023-02-19T01:07:26.514Z,56.70
2023-02-19T01:10:33.099Z,60.73
2023-02-19T01:13:42.127Z,64.60
2023-02-19T01:16:48.992Z,63.46
2023-02-19T01:19:55.980Z,64.39
2023-02-19T01:23:02.640Z,71.65
2023-02-19T01:26:09.942Z,69.56
2023-02-19T01:29:20.260Z,72.58
2023-02-19T01:32:26.335Z,76.06
2023-02-19T01:35:33.134Z,78.36
2023-02-19T01:38:39.012Z,71.98
2023-02-19T01:41:45.945Z,66.28
2023-02-19T01:45:33.497Z,63.25
2023-02-19T01:48:42.997Z,57.34
2023-02-19T01:51:55.845Z,52.16
2023-02-19T01:55:06.309Z,46.37
2023-02-19T01:58:13.577Z,39.24
2023-02-19T02:01:24.131Z,35.92
2023-02-19T02:04:34.276Z,27.79
2023-02-19T02:07:53.455Z,27.89
2023-02-19T02:11:00.960Z,25.66
2023-02-19T02:14:08.768Z,25.80
2023-02-19T02:17:31.587Z,26.43
2023-02-19T02:21:16.202Z,31.42
2023-02-19T02:24:56.070Z,34.00
2023-02-19T02:28:29.114Z,39.50
2023-02-19T02:31:47.099Z,40.06
2023-02-19T02:35:04.209Z,42.35
2023-02-19T02:38:16.698Z,42.19
2023-02-19T02:41:24.213Z,42.81
2023-02-19T02:44:38.436Z,44.44
2023-02-19T02:47:56.068Z,47.43
2023-02-19T02:51:14.083Z,44.42
2023-02-19T02:54:46.907Z,42.94
2023-02-19T02:57:53.753Z,43.97
2023-02-19T03:01:20.410Z,47.36
2023-02-19T03:05:01.117Z,49.51
2023-02-19T03:08:17.244Z,49.94
2023-02-19T03:11:36.952Z,49.18
2023-02-19T03:15:04.451Z,45.81
2023-02-19T03:18:29.625Z,49.67
2023-02-19T03:21:46.519Z,51.20
2023-02-19T03:25:12.528Z,54.00
2023-02-19T03:28:45.683Z,60.28
2023-02-19T03:31:57.922Z,63.73
2023-02-19T03:35:16.819Z,62.64
2023-02-19T03:38:39.833Z,65.10
2023-02-19T03:42:06.025Z,67.05
2023-02-19T03:45:50.405Z,68.42
2023-02-19T03:49:08.442Z,64.44
2023-02-19T03:52:27.328Z,66.81
2023-02-19T03:55:52.235Z,61.13
2023-02-19T03:59:12.422Z,60.36
2023-02-19T04:02:32.910Z,66.77
2023-02-19T04:05:50.020Z,79.16
2023-02-19T04:09:02.757Z,76.02
2023-02-19T04:12:14.068Z,92.18
2023-02-19T04:15:29.608Z,81.74
2023-02-19T04:18:43.949Z,82.87
2023-02-19T04:21:53.528Z,96.29
2023-02-19T04:25:01.126Z,108.68
2023-02-19T04:28:12.473Z,134.09
2023-02-19T04:31:18.622Z,123.89
2023-02-19T04:34:25.306Z,117.81
2023-02-19T04:37:31.365Z,120.77
2023-02-19T04:40:38.198Z,155.97
2023-02-19T04:43:46.779Z,118.04
2023-02-19T04:46:53.519Z,103.38
2023-02-19T04:49:59.274Z,106.00
2023-02-19T04:53:05.800Z,67.70
2023-02-19T04:56:13.560Z,67.26
2023-02-19T04:59:22.765Z,59.63
2023-02-19T05:02:28.677Z,46.51
2023-02-19T05:05:35.187Z,42.66
2023-02-19T05:08:41.186Z,37.58
2023-02-19T05:11:47.783Z,30.89
2023-02-19T05:14:56.249Z,30.00
2023-02-19T05:18:03.029Z,36.10
2023-02-19T05:21:09.532Z,32.45
2023-02-19T05:24:16.293Z,31.35
2023-02-19T05:27:22.195Z,36.94
2023-02-19T05:30:33.438Z,36.84
2023-02-19T05:33:41.551Z,48.81
2023-02-19T05:36:48.034Z,51.98
2023-02-19T05:39:53.878Z,50.85
2023-02-19T05:43:00.539Z,66.04
2023-02-19T05:46:10.578Z,80.37
2023-02-19T05:49:17.255Z,83.41
2023-02-19T05:52:23.315Z,76.92
2023-02-19T05:55:30.015Z,81.60
2023-02-19T05:58:35.763Z,89.46
2023-02-19T06:01:45.090Z,105.44
2023-02-19T06:04:50.866Z,79.26
2023-02-19T06:07:57.464Z,52.99
2023-02-19T06:11:03.240Z,53.62
2023-02-19T06:14:10.344Z,63.52
2023-02-19T06:17:19.203Z,72.59
2023-02-19T06:20:26.390Z,76.25
2023-02-19T06:23:32.408Z,78.77
2023-02-19T06:26:39.621Z,78.65
2023-02-19T06:29:45.475Z,86.17
2023-02-19T06:32:55.833Z,88.44
2023-02-19T06:36:03.403Z,87.36
2023-02-19T06:39:10.284Z,95.43
2023-02-19T06:42:16.167Z,100.70
2023-02-19T06:45:22.676Z,111.18
2023-02-19T06:48:34.685Z,114.91
2023-02-19T06:51:41.198Z,206.06
2023-02-19T06:54:47.664Z,261.53
2023-02-19T06:57:54.394Z,253.52
2023-02-19T07:01:00.239Z,214.71
2023-02-19T07:04:10.504Z,146.48
2023-02-19T07:07:16.393Z,166.60
2023-02-19T07:10:23.036Z,139.32
2023-02-19T07:13:30.374Z,147.91
2023-02-19T07:16:37.347Z,156.31
2023-02-19T07:19:45.829Z,149.03
2023-02-19T07:22:52.344Z,156.65
2023-02-19T07:26:01.244Z,159.89
2023-02-19T07:29:08.068Z,173.41
2023-02-19T07:32:13.958Z,158.74
2023-02-19T07:35:23.227Z,151.10
2023-02-19T07:38:31.833Z,151.58
2023-02-19T07:41:38.381Z,150.00
2023-02-19T07:44:45.357Z,160.02
2023-02-19T07:47:51.957Z,161.07
2023-02-19T07:51:03.774Z,157.57
2023-02-19T07:54:10.445Z,163.19
2023-02-19T07:57:16.259Z,149.61
2023-02-19T08:00:23.235Z,140.12
2023-02-19T08:03:26.467Z,141.29
2023-02-19T08:06:35.891Z,137.72
2023-02-19T08:09:41.712Z,127.13
2023-02-19T08:13:09.868Z,131.05
2023-02-19T08:16:29.617Z,132.33
2023-02-19T08:19:43.972Z,129.74
2023-02-19T08:22:52.436Z,121.64
2023-02-19T08:26:02.880Z,125.06
2023-02-19T08:29:10.662Z,118.88
2023-02-19T08:32:17.227Z,126.35
2023-02-19T08:35:24.767Z,118.44
2023-02-19T08:38:35.939Z,114.29
2023-02-19T08:41:41.669Z,106.50
2023-02-19T08:44:48.486Z,111.49
2023-02-19T08:47:54.246Z,109.30
2023-02-19T08:51:04.816Z,105.26
2023-02-19T08:54:13.246Z,102.53
2023-02-19T08:57:20.001Z,120.02
2023-02-19T09:00:27.487Z,122.84
2023-02-19T09:03:34.527Z,100.15
2023-02-19T09:06:40.668Z,110.09
2023-02-19T09:09:50.148Z,108.20
2023-02-19T09:12:57.079Z,112.14
2023-02-19T09:16:08.858Z,112.42
2023-02-19T09:19:17.091Z,86.96
2023-02-19T09:22:23.693Z,95.11
2023-02-19T09:25:32.216Z,94.73
2023-02-19T09:28:41.889Z,106.03
2023-02-19T09:31:48.675Z,78.45
2023-02-19T09:34:55.691Z,87.10
2023-02-19T09:38:03.574Z,82.02
2023-02-19T09:41:25.771Z,72.15
2023-02-19T09:44:38.275Z,57.40
2023-02-19T09:47:44.888Z,69.14
2023-02-19T09:50:53.464Z,77.04
2023-02-19T09:54:01.924Z,72.91
2023-02-19T09:57:20.824Z,62.48
2023-02-19T10:00:32.868Z,59.14
2023-02-19T10:03:43.526Z,68.60
2023-02-19T10:06:59.134Z,142.95
2023-02-19T10:10:27.589Z,310.14
2023-02-19T10:13:45.666Z,760.72
2023-02-19T10:16:54.029Z,218.03
2023-02-19T10:20:03.506Z,258.32
2023-02-19T10:23:15.412Z,319.30
2023-02-19T10:26:23.312Z,394.82
2023-02-19T10:29:31.646Z,397.26
2023-02-19T10:32:42.268Z,432.17
2023-02-19T10:36:00.389Z,204.87
2023-02-19T10:39:43.890Z,199.08
2023-02-19T10:42:53.462Z,134.65
2023-02-19T10:46:07.781Z,131.76
2023-02-19T10:49:35.695Z,141.79
2023-02-19T10:52:42.580Z,99.41
2023-02-19T10:55:49.627Z,84.25
2023-02-19T10:58:56.816Z,86.10
2023-02-19T11:02:18.478Z,69.77
2023-02-19T11:05:25.590Z,61.81
2023-02-19T11:08:33.984Z,59.32
2023-02-19T11:11:43.480Z,92.97
2023-02-19T11:14:50.684Z,211.94
2023-02-19T11:18:25.124Z,147.71
2023-02-19T11:21:33.818Z,117.74
2023-02-19T11:24:42.390Z,109.80
2023-02-19T11:28:01.147Z,86.00
2023-02-19T11:31:26.595Z,93.09
2023-02-19T11:34:37.711Z,94.89
2023-02-19T11:38:00.100Z,45.43
2023-02-19T11:41:25.894Z,52.07
2023-02-19T11:44:55.392Z,58.68
2023-02-19T11:48:32.796Z,56.14
2023-02-19T11:52:11.057Z,57.33
2023-02-19T11:55:37.264Z,65.56
2023-02-19T11:59:05.086Z,72.00
2023-02-19T12:02:54.370Z,77.12
2023-02-19T12:06:25.972Z,67.49
2023-02-19T12:10:02.153Z,69.90
2023-02-19T12:13:26.629Z,85.47
2023-02-19T12:16:45.871Z,93.36
2023-02-19T12:20:21.724Z,90.62
2023-02-19T12:24:23.773Z,90.99
2023-02-19T12:27:56.031Z,186.50
2023-02-19T12:31:58.434Z,448.52
2023-02-19T12:35:40.555Z,103.34
2023-02-19T12:38:57.977Z,78.82
2023-02-19T12:42:24.643Z,71.63
2023-02-19T12:45:41.892Z,67.76
2023-02-19T12:49:01.685Z,67.48
2023-02-19T12:52:19.778Z,86.34
2023-02-19T12:55:34.056Z,67.23
2023-02-19T12:58:48.035Z,68.45
2023-02-19T13:02:15.726Z,112.63
2023-02-19T13:05:41.173Z,263.86
2023-02-19T13:09:07.572Z,265.90
2023-02-19T13:12:27.121Z,209.00
2023-02-19T13:15:44.535Z,247.01
2023-02-19T13:18:58.867Z,195.70
2023-02-19T13:22:38.653Z,131.63
2023-02-19T13:26:11.486Z,83.39
2023-02-19T13:29:44.982Z,125.22
2023-02-19T13:33:07.063Z,108.32
2023-02-19T13:36:28.770Z,126.87
2023-02-19T13:39:35.166Z,101.93
2023-02-19T13:42:42.577Z,97.88
2023-02-19T13:45:57.169Z,73.93
2023-02-19T13:49:45.741Z,48.29
2023-02-19T13:52:55.289Z,74.74
2023-02-19T13:56:02.055Z,74.33
2023-02-19T13:59:36.608Z,75.18
2023-02-19T14:02:43.486Z,78.32
2023-02-19T14:06:09.285Z,83.22
2023-02-19T14:09:50.385Z,65.71
2023-02-19T14:12:56.176Z,62.39
2023-02-19T14:16:02.806Z,98.28
2023-02-19T14:19:17.602Z,137.68
2023-02-19T14:23:11.501Z,79.13
2023-02-19T14:26:23.043Z,86.60
2023-02-19T14:29:32.587Z,81.12
2023-02-19T14:32:39.205Z,92.51
2023-02-19T14:35:50.484Z,168.17
2023-02-19T14:39:02.970Z,165.77
2023-02-19T14:42:25.215Z,136.59
2023-02-19T14:45:40.392Z,103.56
2023-02-19T14:48:52.264Z,114.24
2023-02-19T14:52:06.474Z,324.29
2023-02-19T14:55:28.918Z,583.11
2023-02-19T14:58:40.982Z,264.78
2023-02-19T15:01:47.781Z,98.52
2023-02-19T15:04:53.707Z,502.26
2023-02-19T15:08:06.048Z,919.75
2023-02-19T15:11:21.796Z,426.06
2023-02-19T15:14:32.442Z,198.91
2023-02-19T15:17:44.562Z,138.17
2023-02-19T15:21:01.120Z,141.77
2023-02-19T15:24:10.619Z,73.98
2023-02-19T15:27:23.451Z,80.88
2023-02-19T15:30:32.903Z,77.95
2023-02-19T15:33:42.047Z,92.82
2023-02-19T15:36:49.837Z,1196.62
2023-02-19T15:39:59.552Z,293.36
2023-02-19T15:43:05.881Z,349.90
2023-02-19T15:46:23.548Z,444.35
2023-02-19T15:49:45.126Z,801.51
2023-02-19T15:53:03.900Z,763.45
2023-02-19T15:56:19.098Z,787.88
2023-02-19T15:59:36.856Z,774.49
2023-02-19T16:02:49.461Z,534.60
2023-02-19T16:06:06.011Z,332.32
2023-02-19T16:09:26.171Z,318.75
2023-02-19T16:12:34.896Z,320.95
2023-02-19T16:15:43.873Z,223.55
2023-02-19T16:18:56.871Z,191.33
2023-02-19T16:22:04.732Z,198.03
2023-02-19T16:25:28.086Z,135.06
2023-02-19T16:28:42.262Z,120.32
2023-02-19T16:31:53.713Z,133.76
2023-02-19T16:35:02.432Z,145.54
2023-02-19T16:38:24.402Z,92.89
2023-02-19T16:41:31.143Z,70.98
2023-02-19T16:44:39.062Z,77.67
2023-02-19T16:47:48.608Z,91.80
2023-02-19T16:50:57.622Z,86.00
2023-02-19T16:54:04.756Z,87.80
2023-02-19T16:57:12.717Z,104.26
2023-02-19T17:00:22.515Z,108.20
2023-02-19T17:03:29.442Z,95.43
2023-02-19T17:06:39.844Z,90.07
2023-02-19T17:09:47.821Z,283.08
2023-02-19T17:12:56.328Z,203.46
2023-02-19T17:16:03.241Z,160.67
2023-02-19T17:19:16.965Z,110.79
2023-02-19T17:22:26.862Z,148.89
2023-02-19T17:25:33.777Z,137.90
2023-02-19T17:28:41.476Z,151.12
2023-02-19T17:31:48.837Z,156.90
2023-02-19T17:34:55.109Z,158.88
2023-02-19T17:38:09.739Z,111.78
2023-02-19T17:41:15.721Z,128.97
2023-02-19T17:44:22.531Z,108.63
2023-02-19T17:47:28.587Z,195.56
2023-02-19T17:50:36.103Z,190.46
2023-02-19T17:53:46.670Z,115.21
2023-02-19T17:56:53.863Z,124.52
2023-02-19T17:59:59.876Z,180.13
2023-02-19T18:03:07.631Z,149.52
2023-02-19T18:06:14.269Z,163.34
2023-02-19T18:09:23.924Z,171.11
2023-02-19T18:12:29.814Z,128.15
2023-02-19T18:15:36.735Z,98.42
2023-02-19T18:18:44.563Z,87.91
2023-02-19T18:21:51.211Z,96.99
2023-02-19T18:24:59.802Z,99.54
2023-02-19T18:28:06.719Z,120.49
2023-02-19T18:31:15.330Z,112.62
2023-02-19T18:34:23.276Z,124.01
2023-02-19T18:37:31.903Z,101.88
2023-02-19T18:40:41.715Z,114.97
2023-02-19T18:43:51.034Z,143.52
2023-02-19T18:47:02.600Z,144.97
2023-02-19T18:50:13.536Z,161.51
2023-02-19T18:53:20.428Z,170.76
2023-02-19T18:56:29.539Z,138.11
2023-02-19T18:59:36.585Z,136.51
2023-02-19T19:02:48.994Z,118.77
2023-02-19T19:05:58.696Z,127.55
2023-02-19T19:09:06.492Z,120.14
2023-02-19T19:12:16.500Z,122.12
2023-02-19T19:15:22.683Z,116.60
2023-02-19T19:18:31.405Z,477.27
2023-02-19T19:21:39.288Z,502.49
2023-02-19T19:24:46.869Z,255.35
2023-02-19T19:27:59.195Z,209.60
2023-02-19T19:31:06.017Z,153.46
2023-02-19T19:34:12.379Z,231.31
2023-02-19T19:37:19.443Z,152.40
2023-02-19T19:40:25.406Z,181.43
2023-02-19T19:43:36.783Z,182.30
2023-02-19T19:46:48.662Z,185.15
2023-02-19T19:49:55.422Z,177.49
2023-02-19T19:53:01.354Z,219.12
2023-02-19T19:56:09.665Z,217.44
2023-02-19T19:59:20.373Z,179.10
2023-02-19T20:02:28.989Z,200.17
2023-02-19T20:05:35.077Z,146.69
2023-02-19T20:08:43.958Z,166.60
2023-02-19T20:11:52.995Z,169.71
2023-02-19T20:15:03.359Z,213.67
2023-02-19T20:18:09.523Z,399.77
2023-02-19T20:21:16.312Z,482.48
2023-02-19T20:24:26.515Z,582.59
2023-02-19T20:27:33.185Z,652.07
2023-02-19T20:30:42.286Z,389.93
2023-02-19T20:33:51.696Z,257.75
2023-02-19T20:37:00.193Z,466.66
2023-02-19T20:40:09.330Z,517.30
2023-02-19T20:43:17.859Z,343.87
2023-02-19T20:46:27.116Z,240.23
2023-02-19T20:49:35.417Z,413.27
2023-02-19T20:52:42.975Z,397.15
2023-02-19T20:55:48.823Z,552.62
2023-02-19T20:58:55.977Z,334.22
2023-02-19T21:02:05.471Z,373.73
2023-02-19T21:05:13.754Z,280.31
2023-02-19T21:08:19.972Z,222.03
2023-02-19T21:11:26.573Z,366.86
2023-02-19T21:14:32.439Z,336.81
2023-02-19T21:17:41.798Z,339.86
2023-02-19T21:20:48.130Z,247.51
2023-02-19T21:23:54.954Z,309.90
2023-02-19T21:27:00.782Z,210.28
2023-02-19T21:30:09.622Z,149.43
2023-02-19T21:33:18.448Z,191.81
2023-02-19T21:36:26.667Z,190.54
2023-02-19T21:39:33.688Z,191.20
2023-02-19T21:42:40.397Z,169.51
2023-02-19T21:45:46.578Z,171.81
2023-02-19T21:48:58.554Z,225.30
2023-02-19T21:52:04.289Z,363.42
2023-02-19T21:55:11.400Z,378.52
2023-02-19T21:58:17.613Z,457.77
2023-02-19T22:01:26.213Z,300.62
2023-02-19T22:04:34.536Z,239.82
2023-02-19T22:07:41.824Z,268.34
2023-02-19T22:10:48.120Z,244.31
2023-02-19T22:13:55.449Z,206.29
2023-02-19T22:17:01.422Z,314.70
2023-02-19T22:20:11.993Z,182.30
2023-02-19T22:23:17.980Z,178.01
2023-02-19T22:26:28.222Z,194.02
2023-02-19T22:29:34.379Z,175.01
2023-02-19T22:32:41.154Z,161.65
2023-02-19T22:35:49.848Z,158.72
2023-02-19T22:38:57.949Z,149.91
2023-02-19T22:42:03.968Z,165.22
2023-02-19T22:45:13.825Z,141.15
2023-02-19T22:48:29.511Z,125.14
2023-02-19T22:51:40.483Z,140.56
2023-02-19T22:54:46.865Z,127.49
2023-02-19T22:57:53.635Z,124.30
2023-02-19T23:00:59.448Z,131.16
2023-02-19T23:04:06.227Z,259.45
2023-02-19T23:07:14.695Z,384.05
2023-02-19T23:10:21.413Z,491.34
2023-02-19T23:13:30.462Z,307.38
2023-02-19T23:16:38.981Z,284.61
2023-02-19T23:19:51.301Z,308.70
2023-02-19T23:23:01.037Z,186.35
2023-02-19T23:26:08.764Z,168.98
2023-02-19T23:29:19.691Z,176.17
2023-02-19T23:32:28.409Z,338.98
2023-02-19T23:35:35.305Z,547.92
2023-02-19T23:38:46.057Z,314.19
2023-02-19T23:41:55.403Z,391.27
2023-02-19T23:45:01.675Z,249.90
2023-02-19T23:48:08.365Z,308.57
2023-02-19T23:51:14.558Z,264.68
2023-02-19T23:54:23.746Z,263.03
2023-02-19T23:57:29.571Z,320.83
